Flight Track Log - Related Links

Times and Time Zones

All times are in EST time to prevent confusion due to time zone crossing. See the N45NS flight status page for this flight to view local times or setup timezone preferences in your user account.

Time Position Orientation Groundspeed Altitude Reporting Facility
EST Latitude Longitude Course Direction KTS MPH feet Rate Location/Type
Tue 05:29:34 PM 36.5242 -82.5067 North 272 313 10,300  Level Atlanta Center
Tue 05:30:34 PM 36.6033 -82.4922 North 277 319 13,800 2,947 Climbing Atlanta Center
Tue 05:31:28 PM 36.6725 -82.4792 North 290 334 15,900 1,448 Climbing Indianapolis Center
Tue 05:32:30 PM 36.7686 -82.4617 North 337 388 16,600 1,790 Climbing Indianapolis Center
Tue 05:33:00 PM 36.9367 -82.3325 11° North  Level FlightAware Approximate
Tue 05:33:32 PM 36.8639 -82.4461 North 350 403 19,600  Level Indianapolis Center
Tue 05:34:34 PM 36.9733 -82.4275 North 346 398 22,800 1,632 Climbing Indianapolis Center
Tue 05:35:37 PM 37.0778 -82.4131 North 367 422 23,000 96 Climbing Indianapolis Center
Tue 05:36:39 PM 37.1903 -82.4269 354° North 399 459 23,000 919 Level Indianapolis Center
Tue 05:37:41 PM 37.3031 -82.4397 355° North 405 466 24,900 2,226 Climbing Indianapolis Center
Tue 05:38:43 PM 37.4292 -82.4261 North 397 457 27,600 1,984 Climbing Indianapolis Center
Tue 05:39:45 PM 37.5378 -82.4092 North 393 452 29,000 677 Climbing Indianapolis Center
Tue 05:40:47 PM 37.6572 -82.3900 North 420 483 29,000  Level Indianapolis Center
Tue 05:41:49 PM 37.7842 -82.3706 North 450 518 29,000  Level Indianapolis Center
Tue 05:42:51 PM 37.9108 -82.3517 North 456 525 29,000  Level Indianapolis Center
Tue 05:43:53 PM 38.0569 -82.3297 North 455 524 29,000  Level Indianapolis Center
Tue 05:44:55 PM 38.1664 -82.3125 North 452 520 29,000  Level Indianapolis Center
Tue 05:45:57 PM 38.2908 -82.2942 North 450 518 29,000  Level Indianapolis Center
Tue 05:46:59 PM 38.4144 -82.2761 North 448 516 29,000  Level Indianapolis Center
Tue 05:48:02 PM 38.5622 -82.2539 North 446 513 29,000  Level Indianapolis Center
Tue 05:49:04 PM 38.6861 -82.2369 North 446 513 29,000  Level Indianapolis Center
Tue 05:50:06 PM 38.8094 -82.2172 North 446 513 29,000  Level Indianapolis Center
Tue 05:51:08 PM 38.9317 -82.1978 North 443 510 29,000  Level Indianapolis Center
Tue 05:52:10 PM 39.0544 -82.1797 North 443 510 29,000  Level Indianapolis Center
Tue 05:53:12 PM 39.1747 -82.1606 North 438 504 29,000 -48 Level Indianapolis Center
Tue 05:54:14 PM 39.2950 -82.1419 North 436 502 28,900 -919 Descending Indianapolis Center
Tue 05:55:16 PM 39.4369 -82.1186 North 432 497 27,100 -1,597 Descending Indianapolis Center
Tue 05:56:18 PM 39.5514 -82.1003 North 419 482 25,600 -1,452 Descending Indianapolis Center
Tue 05:57:20 PM 39.6628 -82.0833 North 408 470 24,100 -1,008 Descending Indianapolis Center
Tue 05:58:23 PM 39.7744 -82.0658 North 406 467 23,500 -1,200 Descending Indianapolis Center
Tue 05:59:25 PM 39.8831 -82.0486 North 401 461 21,600 -2,032 Descending Indianapolis Center
Tue 06:00:27 PM 39.9878 -82.0317 North 392 451 19,300 -2,226 Descending Indianapolis Center
Tue 06:01:29 PM 40.0881 -82.0158 North 372 428 17,000 -2,516 Descending Indianapolis Center
Tue 06:02:31 PM 40.2047 -81.9972 North 359 413 14,100 -2,516 Descending Indianapolis Center
Tue 06:03:33 PM 40.2947 -81.9828 North 351 404 11,800 -2,274 Descending Indianapolis Center
Tue 06:04:35 PM 40.3794 -81.9694 North 315 362 9,400 -2,274 Descending Indianapolis Center
Tue 06:05:37 PM 40.4639 -81.9542 North 270 311 7,100 -2,129 Descending Indianapolis Center
Tue 06:06:39 PM 40.5400 -81.9414 North 268 308 5,000 -1,935 Descending Indianapolis Center
Tue 06:07:41 PM 40.6144 -81.9275 North 272 313 3,100 -968 Descending Indianapolis Center
Tue 06:08:43 PM 40.6881 -81.9186 North 267 307 3,000 -48 Descending Indianapolis Center
Tue 06:09:46 PM 40.7625 -81.9119 North 266 306 3,000 -192 Level Indianapolis Center
Tue 06:10:48 PM 40.8300 -81.9231 353° North 252 290 2,600 -629 Descending Indianapolis Center
Tue 06:11:50 PM 40.8747 -81.9192 North 207 238 1,700 -871 Descending Indianapolis Center
Tue 06:13:00 PM 40.8667 -81.8833 North  Level FlightAware Approximate
Tue 06:20:00 PM 40.8748 -81.8883 North  Level Estimated

Login

Don't have an account? Register now (free) for customized features, flight alerts, and more!